Impacts TAF Board INFO
FOR SITUATIONAL AWARENESS. NOT TO BE USED FOR FLIGHT PLANNING PURPOSES.
IDs:

KPHX - Phoenix/Sky Harbor, AZ, US

Issued at 2039 UTC 24 Feb 2018
Updated at 2154 UTC 24 Feb 2018
Potential Impact None Slight Moderate High
Time2151Z 24/22Z 24/23Z 25/00Z 25/01Z 25/02Z 25/03Z 25/04Z 25/05Z 25/06Z 25/07Z 25/08Z 25/09Z 25/10Z>>
Type OBS PRVL PRVL PRVL PRVL PRVL PRVL PRVL PRVL PRVL PRVL PRVL PRVL PRVL
VIS 10 >6 >6 >6 >6 >6 >6 >6 >6 >6 >6 >6 >6 >6
CIG -- -- -- -- -- -- -- -- -- -- -- -- -- --
Cover CLR SKC SKC SKC SKC SKC SKC SKC SKC SKC SKC SKC SKC SKC
FltCat VFR VFR VFR VFR VFR VFR VFR VFR VFR VFR VFR VFR VFR VFR
WX -- -- -- -- -- -- -- -- -- -- -- -- -- --
WDir 240 250 250 250 250 250 250 250 250 110 110 110 110 110
WSpd 9 8 8 8 8 8 8 8 8 5 5 5 5 5
WGst -- -- -- -- -- -- -- -- -- -- -- -- -- --

Raw TAF
KPHX 242039Z 2421/2524 25008KT P6SM SKC
  FM250600 11005KT P6SM SKC
  FM252100 27005KT P6SM SKC


Raw METAR
KPHX 242151Z 24009KT 10SM CLR 14/M08 A3015 RMK AO2 SLP205 T01441083 $
KPHX 242051Z 27008KT 10SM CLR 14/M07 A3018 RMK AO2 SLP217 T01391072 58028 $
KPHX 241951Z 24008KT 230V290 10SM CLR 13/M07 A3022 RMK AO2 SLP228 T01331072 $
KPHX 241851Z 28003KT 10SM FEW055 11/M06 A3025 RMK AO2 SLP239 T01111056 $

METAR Board
Radar Display
Forecast Discussion

FOR SITUATIONAL AWARENESS. NOT TO BE USED FOR FLIGHT PLANNING PURPOSES.